createdAt,value
2018-12-22T00:00:44.625Z,8.80
2018-12-22T00:03:12.828Z,8.90
2018-12-22T00:05:40.392Z,8.90
2018-12-22T00:08:07.900Z,8.90
2018-12-22T00:10:36.095Z,8.90
2018-12-22T00:13:03.704Z,8.90
2018-12-22T00:15:31.715Z,8.90
2018-12-22T00:17:59.332Z,8.80
2018-12-22T00:20:27.178Z,8.90
2018-12-22T00:22:54.687Z,8.90
2018-12-22T00:25:22.223Z,8.90
2018-12-22T00:27:49.730Z,9.00
2018-12-22T00:30:17.249Z,8.90
2018-12-22T00:32:44.774Z,8.90
2018-12-22T00:35:12.294Z,9.00
2018-12-22T00:37:39.800Z,9.00
2018-12-22T00:40:08.360Z,9.00
2018-12-22T00:42:36.420Z,9.00
2018-12-22T00:45:04.374Z,9.00
2018-12-22T00:47:32.925Z,9.00
2018-12-22T00:50:00.997Z,9.00
2018-12-22T00:52:28.704Z,9.00
2018-12-22T00:54:57.546Z,9.10
2018-12-22T00:57:25.536Z,9.10
2018-12-22T00:59:53.044Z,9.20
2018-12-22T01:02:20.812Z,9.20
2018-12-22T01:04:48.326Z,9.20
2018-12-22T01:07:16.657Z,9.20
2018-12-22T01:09:44.456Z,9.10
2018-12-22T01:12:12.895Z,9.10
2018-12-22T01:14:41.148Z,9.10
2018-12-22T01:17:08.885Z,9.20
2018-12-22T01:19:36.404Z,9.20
2018-12-22T01:22:04.016Z,9.20
2018-12-22T01:24:31.568Z,9.20
2018-12-22T01:26:59.076Z,9.10
2018-12-22T01:29:26.593Z,9.10
2018-12-22T01:31:55.516Z,9.10
2018-12-22T01:34:23.026Z,9.20
2018-12-22T01:36:50.889Z,9.20
2018-12-22T01:39:18.409Z,9.20
2018-12-22T01:41:46.236Z,9.10
2018-12-22T01:44:13.761Z,9.20
2018-12-22T01:46:41.288Z,9.20
2018-12-22T01:49:08.800Z,9.20
2018-12-22T01:51:36.540Z,9.10
2018-12-22T01:54:05.360Z,9.10
2018-12-22T01:56:32.900Z,9.10
2018-12-22T01:59:00.681Z,9.10
2018-12-22T02:01:28.204Z,9.10
2018-12-22T02:03:56.384Z,9.20
2018-12-22T02:06:23.901Z,9.20
2018-12-22T02:08:51.414Z,9.20
2018-12-22T02:11:18.931Z,9.20
2018-12-22T02:13:46.443Z,9.20
2018-12-22T02:16:13.960Z,9.20
2018-12-22T02:18:41.476Z,9.20
2018-12-22T02:21:08.983Z,9.20
2018-12-22T02:23:36.517Z,9.10
2018-12-22T02:26:04.024Z,9.10
2018-12-22T02:28:31.536Z,9.10
2018-12-22T02:31:00.540Z,9.10
2018-12-22T02:33:28.053Z,9.10
2018-12-22T02:35:55.734Z,9.10
2018-12-22T02:38:23.263Z,9.20
2018-12-22T02:40:50.844Z,9.20
2018-12-22T02:43:18.371Z,9.20
2018-12-22T02:45:45.902Z,9.20
2018-12-22T02:48:13.422Z,9.20
2018-12-22T02:50:40.939Z,9.20
2018-12-22T02:53:08.464Z,9.20
2018-12-22T02:55:35.976Z,9.30
2018-12-22T02:58:03.497Z,9.30
2018-12-22T03:00:31.216Z,9.30
2018-12-22T03:02:59.137Z,9.30
2018-12-22T03:05:26.673Z,9.30
2018-12-22T03:07:54.648Z,9.30
2018-12-22T03:10:22.166Z,9.30
2018-12-22T03:12:50.185Z,9.30
2018-12-22T03:15:17.715Z,9.30
2018-12-22T03:17:45.241Z,9.30
2018-12-22T03:20:12.784Z,9.30
2018-12-22T03:22:40.313Z,9.30
2018-12-22T03:25:07.820Z,9.20
2018-12-22T03:27:35.508Z,9.20
2018-12-22T03:30:03.671Z,9.20
2018-12-22T03:32:31.753Z,9.20
2018-12-22T03:35:00.705Z,9.20
2018-12-22T03:37:29.210Z,9.20
2018-12-22T03:39:56.729Z,9.20
2018-12-22T03:42:24.675Z,9.20
2018-12-22T03:44:52.204Z,9.20
2018-12-22T03:47:19.724Z,9.10
2018-12-22T03:49:47.347Z,9.10
2018-12-22T03:52:14.880Z,9.10
2018-12-22T03:54:42.400Z,9.00
2018-12-22T03:57:10.028Z,9.00
2018-12-22T03:59:37.572Z,9.00
2018-12-22T04:02:05.080Z,9.00
2018-12-22T04:04:33.224Z,9.00
2018-12-22T04:07:00.745Z,9.00
2018-12-22T04:09:28.660Z,9.10
2018-12-22T04:11:56.180Z,9.10
2018-12-22T04:14:24.573Z,9.10
2018-12-22T04:16:52.076Z,9.10
2018-12-22T04:19:19.586Z,9.00
2018-12-22T04:21:47.118Z,9.00
2018-12-22T04:24:14.627Z,9.10
2018-12-22T04:26:42.138Z,9.10
2018-12-22T04:29:10.021Z,9.10
2018-12-22T04:31:37.731Z,9.00
2018-12-22T04:34:05.262Z,9.00
2018-12-22T04:36:33.123Z,9.00
2018-12-22T04:39:00.632Z,9.00
2018-12-22T04:41:28.548Z,9.00
2018-12-22T04:43:56.076Z,9.00
2018-12-22T04:46:23.832Z,8.90
2018-12-22T04:48:51.340Z,8.90
2018-12-22T04:51:18.861Z,8.80
2018-12-22T04:53:46.365Z,8.80
2018-12-22T04:56:13.873Z,8.70
2018-12-22T04:58:41.396Z,8.70
2018-12-22T05:01:08.908Z,8.70
2018-12-22T05:03:36.625Z,8.70
2018-12-22T05:06:05.130Z,8.60
2018-12-22T05:08:33.218Z,8.60
2018-12-22T05:11:00.745Z,8.70
2018-12-22T05:13:28.290Z,8.60
2018-12-22T05:15:55.809Z,8.70
2018-12-22T05:18:23.509Z,8.60
2018-12-22T05:20:51.027Z,8.70
2018-12-22T05:23:18.529Z,8.70
2018-12-22T05:25:46.060Z,8.80
2018-12-22T05:28:13.573Z,8.80
2018-12-22T05:30:41.082Z,8.80
2018-12-22T05:33:08.624Z,8.80
2018-12-22T05:35:36.142Z,8.80
2018-12-22T05:38:03.652Z,8.80
2018-12-22T05:40:31.736Z,8.80
2018-12-22T05:42:59.265Z,8.80
2018-12-22T05:45:27.200Z,8.90
2018-12-22T05:47:54.712Z,8.80
2018-12-22T05:50:22.459Z,8.90
2018-12-22T05:52:49.973Z,8.80
2018-12-22T05:55:18.004Z,8.80
2018-12-22T05:57:45.567Z,8.90
2018-12-22T06:00:13.980Z,8.90
2018-12-22T06:02:41.836Z,8.90
2018-12-22T06:05:10.305Z,8.90
2018-12-22T06:07:37.868Z,8.90
2018-12-22T06:10:06.857Z,8.90
2018-12-22T06:12:34.652Z,8.90
2018-12-22T06:15:02.592Z,8.90
2018-12-22T06:17:30.099Z,8.90
2018-12-22T06:19:57.619Z,8.90
2018-12-22T06:22:25.133Z,8.90
2018-12-22T06:24:52.640Z,9.00
2018-12-22T06:27:20.166Z,9.00
2018-12-22T06:29:47.680Z,9.00
2018-12-22T06:32:15.190Z,9.00
2018-12-22T06:34:43.460Z,9.00
2018-12-22T06:37:11.452Z,9.00
2018-12-22T06:39:39.143Z,9.00
2018-12-22T06:42:06.913Z,9.00
2018-12-22T06:44:34.428Z,9.00
2018-12-22T06:47:01.939Z,9.00
2018-12-22T06:49:29.455Z,9.10
2018-12-22T06:51:56.966Z,9.00
2018-12-22T06:54:24.474Z,9.10
2018-12-22T06:56:52.045Z,9.10
2018-12-22T06:59:19.561Z,9.10
2018-12-22T07:01:47.062Z,9.10
2018-12-22T07:04:16.362Z,9.10
2018-12-22T07:06:43.873Z,9.10
2018-12-22T07:09:12.017Z,9.10
2018-12-22T07:11:39.536Z,9.20
2018-12-22T07:14:07.046Z,9.20
2018-12-22T07:16:34.550Z,9.20
2018-12-22T07:19:02.099Z,9.20
2018-12-22T07:21:29.629Z,9.20
2018-12-22T07:23:57.138Z,9.30
2018-12-22T07:26:24.646Z,9.30
2018-12-22T07:28:52.157Z,9.20
2018-12-22T07:31:19.670Z,9.20
2018-12-22T07:33:48.192Z,9.20
2018-12-22T07:36:16.352Z,9.20
2018-12-22T07:38:43.861Z,9.30
2018-12-22T07:41:11.431Z,9.30
2018-12-22T07:43:38.958Z,9.20
2018-12-22T07:46:06.474Z,9.20
2018-12-22T07:48:33.982Z,9.20
2018-12-22T07:51:01.496Z,9.20
2018-12-22T07:53:29.024Z,9.20
2018-12-22T07:55:56.548Z,9.20
2018-12-22T07:58:25.025Z,9.20
2018-12-22T08:00:52.541Z,9.20
2018-12-22T08:03:20.309Z,9.20
2018-12-22T08:05:47.900Z,9.20
2018-12-22T08:08:16.102Z,9.20
2018-12-22T08:10:44.750Z,9.20
2018-12-22T08:13:12.256Z,9.20
2018-12-22T08:15:40.256Z,9.20
2018-12-22T08:18:08.746Z,9.20
2018-12-22T08:20:36.354Z,9.30
2018-12-22T08:23:04.979Z,9.20
2018-12-22T08:25:32.509Z,9.20
2018-12-22T08:28:00.340Z,9.20
2018-12-22T08:30:27.853Z,9.20
2018-12-22T08:32:55.613Z,9.20
2018-12-22T08:35:24.537Z,9.20
2018-12-22T08:37:52.057Z,9.30
2018-12-22T08:40:20.302Z,9.20
2018-12-22T08:42:47.814Z,9.20
2018-12-22T08:45:15.328Z,9.20
2018-12-22T08:47:42.898Z,9.20
2018-12-22T08:50:10.620Z,9.20
2018-12-22T08:52:38.133Z,9.20
2018-12-22T08:55:06.438Z,9.20
2018-12-22T08:57:34.711Z,9.20
2018-12-22T09:00:02.216Z,9.20
2018-12-22T09:02:30.217Z,9.20
2018-12-22T09:04:57.733Z,9.20
2018-12-22T09:07:25.479Z,9.20
2018-12-22T09:09:53.024Z,9.20
2018-12-22T09:12:20.610Z,9.30
2018-12-22T09:14:49.032Z,9.20
2018-12-22T09:17:16.828Z,9.30
2018-12-22T09:19:45.153Z,9.30
2018-12-22T09:22:12.652Z,9.30
2018-12-22T09:24:41.180Z,9.30
2018-12-22T09:27:08.858Z,9.40
2018-12-22T09:29:36.372Z,9.30
2018-12-22T09:32:04.334Z,9.30
2018-12-22T09:34:31.849Z,9.30
2018-12-22T09:36:59.739Z,9.30
2018-12-22T09:39:28.964Z,9.30
2018-12-22T09:41:56.468Z,9.30
2018-12-22T09:44:24.655Z,9.30
2018-12-22T09:46:52.172Z,9.30
2018-12-22T09:49:19.998Z,9.30
2018-12-22T09:51:47.507Z,9.30
2018-12-22T09:54:15.026Z,9.30
2018-12-22T09:56:42.537Z,9.30
2018-12-22T09:59:10.049Z,9.30
2018-12-22T10:01:38.563Z,9.30
2018-12-22T10:04:06.089Z,9.30
2018-12-22T10:06:34.073Z,9.30
2018-12-22T10:09:01.594Z,9.40
2018-12-22T10:11:29.545Z,9.40
2018-12-22T10:13:57.054Z,9.40
2018-12-22T10:16:25.703Z,9.40
2018-12-22T10:18:53.410Z,9.40
2018-12-22T10:21:20.913Z,9.40
2018-12-22T10:23:49.139Z,9.40
2018-12-22T10:26:16.667Z,9.50
2018-12-22T10:28:44.452Z,9.50
2018-12-22T10:31:17.951Z,9.50
2018-12-22T10:33:41.560Z,9.50
2018-12-22T10:36:09.380Z,9.50
2018-12-22T10:38:36.906Z,9.60
2018-12-22T10:41:04.516Z,9.60
2018-12-22T10:43:32.022Z,9.50
2018-12-22T10:45:59.551Z,9.50
2018-12-22T10:48:27.061Z,9.50
2018-12-22T10:50:54.573Z,9.50
2018-12-22T10:53:22.090Z,9.50
2018-12-22T10:55:49.625Z,9.50
2018-12-22T10:58:17.138Z,9.50
2018-12-22T11:00:44.669Z,9.50
2018-12-22T11:03:12.775Z,9.40
2018-12-22T11:05:40.365Z,9.30
2018-12-22T11:08:08.332Z,9.30
2018-12-22T11:10:36.188Z,9.30
2018-12-22T11:13:03.841Z,9.40
2018-12-22T11:15:31.360Z,9.30
2018-12-22T11:17:58.908Z,9.30
2018-12-22T11:20:26.413Z,9.30
2018-12-22T11:22:53.936Z,9.30
2018-12-22T11:25:21.444Z,9.30
2018-12-22T11:27:49.913Z,9.30
2018-12-22T11:30:21.417Z,9.20
2018-12-22T11:32:48.948Z,9.20
2018-12-22T11:35:16.458Z,9.10
2018-12-22T11:37:43.965Z,9.10
2018-12-22T11:40:11.468Z,9.00
2018-12-22T11:42:47.445Z,9.00
2018-12-22T11:45:08.943Z,9.00
2018-12-22T11:47:40.052Z,9.00
2018-12-22T11:50:12.925Z,9.00
2018-12-22T11:52:40.437Z,9.00
2018-12-22T11:55:08.999Z,9.10
2018-12-22T11:57:36.925Z,9.00
2018-12-22T12:00:06.944Z,9.00
2018-12-22T12:02:34.511Z,9.00
2018-12-22T12:05:02.948Z,9.00
2018-12-22T12:07:30.459Z,9.00
2018-12-22T12:09:57.966Z,9.00
2018-12-22T12:12:25.572Z,9.00
2018-12-22T12:14:53.109Z,9.00
2018-12-22T12:17:29.341Z,9.10
2018-12-22T12:19:57.273Z,9.10
2018-12-22T12:22:24.795Z,9.10
2018-12-22T12:24:52.868Z,9.10
2018-12-22T12:27:21.575Z,9.10
2018-12-22T12:29:49.081Z,9.10
2018-12-22T12:32:17.026Z,9.20
2018-12-22T12:34:44.546Z,9.20
2018-12-22T12:37:12.761Z,9.20
2018-12-22T12:39:40.277Z,9.20
2018-12-22T12:42:07.801Z,9.20
2018-12-22T12:44:35.392Z,9.20
2018-12-22T12:47:03.617Z,9.30
2018-12-22T12:49:32.078Z,9.30
2018-12-22T12:51:59.591Z,9.30
2018-12-22T12:54:27.498Z,9.30
2018-12-22T12:56:55.019Z,9.30
2018-12-22T12:59:22.535Z,9.30
2018-12-22T13:01:50.049Z,9.30
2018-12-22T13:04:17.564Z,9.30
2018-12-22T13:06:45.071Z,9.30
2018-12-22T13:09:15.614Z,9.30
2018-12-22T13:11:42.181Z,9.30
2018-12-22T13:14:09.692Z,9.30
2018-12-22T13:16:37.210Z,9.30
2018-12-22T13:19:04.894Z,9.30
2018-12-22T13:21:32.468Z,9.30
2018-12-22T13:24:00.145Z,9.30
2018-12-22T13:26:36.457Z,9.30
2018-12-22T13:28:57.180Z,9.30
2018-12-22T13:31:25.696Z,9.30
2018-12-22T13:33:53.200Z,9.40
2018-12-22T13:36:21.054Z,9.40
2018-12-22T13:38:48.749Z,9.30
2018-12-22T13:41:16.967Z,9.30
2018-12-22T13:43:44.477Z,9.30
2018-12-22T13:46:13.200Z,9.30
2018-12-22T13:48:41.288Z,9.30
2018-12-22T13:51:09.502Z,9.30
2018-12-22T13:53:37.068Z,9.30
2018-12-22T13:56:04.576Z,9.30
2018-12-22T13:58:32.081Z,9.30
2018-12-22T14:01:00.239Z,9.30
2018-12-22T14:03:28.657Z,9.30
2018-12-22T14:05:56.362Z,9.40
2018-12-22T14:08:23.892Z,9.40
2018-12-22T14:10:51.996Z,9.50
2018-12-22T14:13:19.505Z,9.50
2018-12-22T14:15:48.397Z,9.40
2018-12-22T14:18:20.836Z,9.40
2018-12-22T14:20:48.360Z,9.40
2018-12-22T14:23:16.585Z,9.30
2018-12-22T14:25:44.117Z,9.30
2018-12-22T14:28:11.659Z,9.30
2018-12-22T14:30:39.218Z,9.20
2018-12-22T14:33:06.772Z,9.20
2018-12-22T14:35:36.841Z,9.20
2018-12-22T14:38:04.367Z,9.20
2018-12-22T14:40:31.877Z,9.20
2018-12-22T14:42:59.890Z,9.20
2018-12-22T14:45:27.411Z,9.20
2018-12-22T14:47:55.408Z,9.20
2018-12-22T14:50:22.920Z,9.20
2018-12-22T14:52:50.637Z,9.20
2018-12-22T14:55:18.170Z,9.20
2018-12-22T14:57:52.425Z,9.20
2018-12-22T15:00:20.204Z,9.10
2018-12-22T15:02:47.912Z,9.10
2018-12-22T15:05:15.722Z,9.20
2018-12-22T15:07:43.325Z,9.10
2018-12-22T15:10:10.844Z,9.10
2018-12-22T15:12:38.423Z,9.10
2018-12-22T15:15:10.884Z,9.10
2018-12-22T15:17:41.665Z,9.10
2018-12-22T15:20:28.436Z,9.10
2018-12-22T15:22:55.958Z,9.10
2018-12-22T15:25:23.463Z,9.10
2018-12-22T15:27:51.001Z,9.10
2018-12-22T15:30:18.532Z,9.10
2018-12-22T15:32:54.412Z,9.00
2018-12-22T15:35:16.508Z,9.10
2018-12-22T15:37:44.016Z,9.10
2018-12-22T15:40:11.524Z,9.00
2018-12-22T15:42:39.041Z,8.90
2018-12-22T15:45:11.207Z,8.80
2018-12-22T15:47:38.905Z,8.80
2018-12-22T15:50:12.251Z,8.80
2018-12-22T15:52:40.089Z,8.80
2018-12-22T15:55:09.035Z,8.90
2018-12-22T15:57:36.592Z,8.90
2018-12-22T16:00:07.777Z,8.90
2018-12-22T16:02:35.281Z,8.90
2018-12-22T16:05:02.817Z,8.90
2018-12-22T16:07:30.325Z,9.00
2018-12-22T16:09:57.904Z,9.00
2018-12-22T16:12:25.421Z,9.00
2018-12-22T16:14:52.927Z,8.90
2018-12-22T16:17:20.784Z,8.90
2018-12-22T16:19:49.292Z,8.90
2018-12-22T16:22:16.961Z,9.00
2018-12-22T16:24:44.551Z,9.00
2018-12-22T16:27:12.072Z,9.00
2018-12-22T16:29:40.014Z,9.00
2018-12-22T16:32:07.528Z,9.10
2018-12-22T16:34:35.229Z,9.00
2018-12-22T16:37:02.737Z,9.00
2018-12-22T16:39:30.252Z,9.00
2018-12-22T16:41:57.773Z,9.00
2018-12-22T16:44:25.716Z,9.00
2018-12-22T16:46:53.372Z,9.00
2018-12-22T16:49:20.892Z,9.00
2018-12-22T16:51:48.969Z,9.00
2018-12-22T16:54:16.496Z,8.90
2018-12-22T16:56:44.512Z,8.80
2018-12-22T16:59:12.041Z,8.80
2018-12-22T17:01:40.649Z,8.80
2018-12-22T17:04:08.152Z,8.70
2018-12-22T17:06:36.088Z,8.60
2018-12-22T17:09:05.581Z,8.60
2018-12-22T17:11:33.104Z,8.70
2018-12-22T17:14:01.185Z,8.70
2018-12-22T17:16:28.950Z,8.70
2018-12-22T17:18:56.505Z,8.70
2018-12-22T17:21:24.135Z,8.70
2018-12-22T17:23:55.637Z,8.70
2018-12-22T17:26:26.639Z,8.70
2018-12-22T17:28:54.168Z,8.70
2018-12-22T17:31:21.731Z,8.70
2018-12-22T17:33:49.364Z,8.70
2018-12-22T17:36:16.896Z,8.60
2018-12-22T17:38:44.428Z,8.70
2018-12-22T17:41:12.016Z,8.70
2018-12-22T17:43:40.508Z,8.70
2018-12-22T17:46:08.021Z,8.70
2018-12-22T17:48:35.612Z,8.70
2018-12-22T17:51:03.125Z,8.70
2018-12-22T17:53:31.400Z,8.70
2018-12-22T17:55:58.915Z,8.70
2018-12-22T17:58:27.958Z,8.60
2018-12-22T18:00:56.232Z,8.60
2018-12-22T18:03:27.504Z,8.50
2018-12-22T18:05:53.571Z,8.50
2018-12-22T18:08:21.738Z,8.50
2018-12-22T18:10:49.637Z,8.50
2018-12-22T18:13:17.139Z,8.50
2018-12-22T18:15:44.670Z,8.40
2018-12-22T18:18:12.219Z,8.50
2018-12-22T18:20:39.729Z,8.50
2018-12-22T18:23:08.205Z,8.50
2018-12-22T18:25:36.503Z,8.40
2018-12-22T18:28:04.021Z,8.40
2018-12-22T18:30:31.940Z,8.50
2018-12-22T18:32:59.466Z,8.40
2018-12-22T18:35:26.983Z,8.40
2018-12-22T18:37:54.498Z,8.40
2018-12-22T18:40:23.244Z,8.40
2018-12-22T18:42:51.130Z,8.50
2018-12-22T18:45:18.633Z,8.50
2018-12-22T18:47:46.580Z,8.60
2018-12-22T18:50:21.561Z,8.60
2018-12-22T18:52:49.068Z,8.60
2018-12-22T18:55:16.882Z,8.50
2018-12-22T18:57:47.724Z,8.50
2018-12-22T19:00:18.876Z,8.50
2018-12-22T19:02:46.608Z,8.50
2018-12-22T19:05:15.373Z,8.60
2018-12-22T19:07:43.856Z,8.50
2018-12-22T19:10:17.146Z,8.50
2018-12-22T19:12:46.357Z,8.40
2018-12-22T19:15:13.894Z,8.40
2018-12-22T19:17:41.484Z,8.40
2018-12-22T19:20:15.888Z,8.40
2018-12-22T19:22:43.472Z,8.40
2018-12-22T19:25:12.462Z,8.40
2018-12-22T19:27:40.160Z,8.50
2018-12-22T19:30:08.560Z,8.40
2018-12-22T19:32:36.310Z,8.50
2018-12-22T19:35:05.115Z,8.50
2018-12-22T19:37:32.624Z,8.40
2018-12-22T19:40:00.664Z,8.50
2018-12-22T19:42:28.184Z,8.40
2018-12-22T19:44:56.236Z,8.40
2018-12-22T19:47:23.748Z,8.50
2018-12-22T19:49:51.325Z,8.50
2018-12-22T19:52:18.854Z,8.60
2018-12-22T19:54:47.353Z,8.60
2018-12-22T19:57:15.355Z,8.60
2018-12-22T19:59:43.821Z,8.60
2018-12-22T20:02:11.331Z,8.60
2018-12-22T20:04:38.926Z,8.60
2018-12-22T20:07:06.436Z,8.50
2018-12-22T20:09:33.945Z,8.50
2018-12-22T20:12:02.497Z,8.60
2018-12-22T20:14:30.601Z,8.50
2018-12-22T20:16:58.223Z,8.50
2018-12-22T20:19:26.187Z,8.50
2018-12-22T20:21:53.712Z,8.50
2018-12-22T20:24:21.221Z,8.50
2018-12-22T20:26:48.741Z,8.50
2018-12-22T20:29:16.645Z,8.50
2018-12-22T20:31:44.842Z,8.50
2018-12-22T20:34:12.354Z,8.50
2018-12-22T20:36:40.266Z,8.50
2018-12-22T20:39:07.768Z,8.50
2018-12-22T20:41:35.630Z,8.50
2018-12-22T20:44:03.149Z,8.50
2018-12-22T20:46:30.961Z,8.50
2018-12-22T20:48:58.472Z,8.50
2018-12-22T20:51:25.977Z,8.40
2018-12-22T20:53:53.500Z,8.50
2018-12-22T20:56:21.030Z,8.40
2018-12-22T20:58:49.266Z,8.40
2018-12-22T21:01:16.800Z,8.40
2018-12-22T21:03:46.297Z,8.40
2018-12-22T21:06:16.297Z,8.40
2018-12-22T21:08:44.027Z,8.40
2018-12-22T21:11:12.514Z,8.40
2018-12-22T21:13:40.141Z,8.30
2018-12-22T21:16:07.658Z,8.40
2018-12-22T21:18:35.601Z,8.40
2018-12-22T21:21:03.115Z,8.30
2018-12-22T21:23:30.632Z,8.40
2018-12-22T21:25:58.163Z,8.40
2018-12-22T21:28:25.794Z,8.40
2018-12-22T21:30:53.637Z,8.40
2018-12-22T21:33:21.149Z,8.40
2018-12-22T21:35:53.502Z,8.50
2018-12-22T21:38:19.488Z,8.40
2018-12-22T21:40:47.009Z,8.40
2018-12-22T21:43:14.940Z,8.50
2018-12-22T21:45:42.454Z,8.40
2018-12-22T21:48:10.543Z,8.50
2018-12-22T21:50:38.060Z,8.50
2018-12-22T21:53:05.570Z,8.40
2018-12-22T21:55:33.082Z,8.40
2018-12-22T21:58:00.598Z,8.40
2018-12-22T22:00:28.143Z,8.40
2018-12-22T22:02:55.666Z,8.50
2018-12-22T22:05:23.317Z,8.40
2018-12-22T22:07:50.928Z,8.40
2018-12-22T22:10:19.312Z,8.50
2018-12-22T22:12:46.827Z,8.50
2018-12-22T22:15:15.093Z,8.50
2018-12-22T22:17:42.617Z,8.40
2018-12-22T22:20:10.261Z,8.40
2018-12-22T22:22:37.778Z,8.40
2018-12-22T22:25:05.296Z,8.30
2018-12-22T22:27:33.008Z,8.30
2018-12-22T22:30:00.829Z,8.30
2018-12-22T22:32:29.096Z,8.30
2018-12-22T22:34:56.628Z,8.30
2018-12-22T22:37:24.766Z,8.40
2018-12-22T22:39:52.273Z,8.40
2018-12-22T22:42:19.793Z,8.40
2018-12-22T22:44:47.306Z,8.40
2018-12-22T22:47:15.529Z,8.40
2018-12-22T22:49:43.674Z,8.40
2018-12-22T22:52:11.979Z,8.40
2018-12-22T22:54:40.218Z,8.50
2018-12-22T22:57:07.827Z,8.50
2018-12-22T22:59:35.357Z,8.50
2018-12-22T23:02:03.433Z,8.50
2018-12-22T23:04:30.942Z,8.50
2018-12-22T23:06:58.924Z,8.50
2018-12-22T23:09:26.442Z,8.50
2018-12-22T23:11:54.736Z,8.50
2018-12-22T23:14:22.244Z,8.40
2018-12-22T23:16:49.773Z,8.40
2018-12-22T23:19:17.281Z,8.40
2018-12-22T23:21:44.788Z,8.40
2018-12-22T23:24:12.300Z,8.30
2018-12-22T23:26:39.809Z,8.30
2018-12-22T23:29:07.324Z,8.30
2018-12-22T23:31:34.834Z,8.30
2018-12-22T23:34:02.349Z,8.30
2018-12-22T23:36:29.861Z,8.30
2018-12-22T23:38:59.164Z,8.30
2018-12-22T23:41:26.681Z,8.30
2018-12-22T23:43:54.200Z,8.30
2018-12-22T23:46:21.717Z,8.30
2018-12-22T23:48:49.222Z,8.30
2018-12-22T23:51:16.726Z,8.30
2018-12-22T23:53:44.253Z,8.20
2018-12-22T23:56:11.984Z,8.20
2018-12-22T23:58:39.495Z,8.20
